createdAt,value
2022-09-07T00:00:09.086Z,0.00
2022-09-07T00:01:09.068Z,0.00
2022-09-07T00:02:09.096Z,0.00
2022-09-07T00:03:09.158Z,0.00
2022-09-07T00:04:09.101Z,0.00
2022-09-07T00:05:09.007Z,0.00
2022-09-07T00:06:09.018Z,0.00
2022-09-07T00:07:08.985Z,0.00
2022-09-07T00:08:08.974Z,0.00
2022-09-07T00:09:08.946Z,0.00
2022-09-07T00:10:08.971Z,0.00
2022-09-07T00:11:08.927Z,0.00
2022-09-07T00:12:08.927Z,0.00
2022-09-07T00:13:08.905Z,0.00
2022-09-07T00:14:08.896Z,0.00
2022-09-07T00:15:08.877Z,0.00
2022-09-07T00:16:08.949Z,0.00
2022-09-07T00:17:08.869Z,0.00
2022-09-07T00:18:08.849Z,0.00
2022-09-07T00:19:08.839Z,0.00
2022-09-07T00:20:08.869Z,0.00
2022-09-07T00:21:16.273Z,0.00
2022-09-07T00:22:08.813Z,0.00
2022-09-07T00:23:08.780Z,0.00
2022-09-07T00:24:08.762Z,0.00
2022-09-07T00:25:08.753Z,0.00
2022-09-07T00:26:08.753Z,0.00
2022-09-07T00:27:08.724Z,0.00
2022-09-07T00:28:08.722Z,0.00
2022-09-07T00:29:08.771Z,0.00
2022-09-07T00:30:08.694Z,0.00
2022-09-07T00:31:08.770Z,0.00
2022-09-07T00:32:08.668Z,0.00
2022-09-07T00:33:08.652Z,0.00
2022-09-07T00:34:08.654Z,0.00
2022-09-07T00:35:08.625Z,0.00
2022-09-07T00:36:08.615Z,0.00
2022-09-07T00:37:08.607Z,0.00
2022-09-07T00:38:08.583Z,0.00
2022-09-07T00:39:08.576Z,0.00
2022-09-07T00:40:08.639Z,0.00
2022-09-07T00:41:08.545Z,0.00
2022-09-07T00:42:08.543Z,0.00
2022-09-07T00:43:08.523Z,0.00
2022-09-07T00:44:08.516Z,0.00
2022-09-07T00:45:08.505Z,0.00
2022-09-07T00:46:08.524Z,0.00
2022-09-07T00:47:08.488Z,0.00
2022-09-07T00:48:08.465Z,0.00
2022-09-07T00:49:08.445Z,0.00
2022-09-07T00:50:08.447Z,0.00
2022-09-07T00:51:08.425Z,0.00
2022-09-07T00:52:08.468Z,0.00
2022-09-07T00:53:08.403Z,0.00
2022-09-07T00:54:08.376Z,0.00
2022-09-07T00:55:08.366Z,0.00
2022-09-07T00:56:08.356Z,0.00
2022-09-07T00:57:08.335Z,0.00
2022-09-07T00:58:08.336Z,0.00
2022-09-07T00:59:08.316Z,0.00
2022-09-07T01:00:08.307Z,0.00
2022-09-07T01:01:08.287Z,0.00
2022-09-07T01:02:08.408Z,0.00
2022-09-07T01:03:08.371Z,0.00
2022-09-07T01:04:08.258Z,0.00
2022-09-07T01:05:09.594Z,0.00
2022-09-07T01:06:08.243Z,0.00
2022-09-07T01:07:08.227Z,0.00
2022-09-07T01:08:08.218Z,0.00
2022-09-07T01:09:08.195Z,0.00
2022-09-07T01:10:08.168Z,0.00
2022-09-07T01:11:08.197Z,0.00
2022-09-07T01:12:08.148Z,0.00
2022-09-07T01:13:08.139Z,0.00
2022-09-07T01:14:08.147Z,0.00
2022-09-07T01:15:08.107Z,0.00
2022-09-07T01:16:08.175Z,0.00
2022-09-07T01:17:08.069Z,0.00
2022-09-07T01:18:08.092Z,0.00
2022-09-07T01:19:08.062Z,0.00
2022-09-07T01:20:08.058Z,0.00
2022-09-07T01:21:08.043Z,0.00
2022-09-07T01:22:08.008Z,0.00
2022-09-07T01:23:08.009Z,0.00
2022-09-07T01:24:07.989Z,0.00
2022-09-07T01:25:07.982Z,0.00
2022-09-07T01:26:07.963Z,0.00
2022-09-07T01:27:07.954Z,0.00
2022-09-07T01:28:07.950Z,0.00
2022-09-07T01:29:07.933Z,0.00
2022-09-07T01:30:07.941Z,0.00
2022-09-07T01:31:07.965Z,0.00
2022-09-07T01:32:07.883Z,0.00
2022-09-07T01:33:07.872Z,0.00
2022-09-07T01:34:07.860Z,0.00
2022-09-07T01:35:07.851Z,0.00
2022-09-07T01:36:07.830Z,0.00
2022-09-07T01:37:07.831Z,0.00
2022-09-07T01:38:07.801Z,0.00
2022-09-07T01:39:07.791Z,0.00
2022-09-07T01:40:07.840Z,0.00
2022-09-07T01:41:07.759Z,0.00
2022-09-07T01:42:07.752Z,0.00
2022-09-07T01:43:07.751Z,0.00
2022-09-07T01:44:07.721Z,0.00
2022-09-07T01:45:07.740Z,0.00
2022-09-07T01:46:07.784Z,0.00
2022-09-07T01:47:07.735Z,0.00
2022-09-07T01:48:07.673Z,0.00
2022-09-07T01:49:07.663Z,0.00
2022-09-07T01:50:07.654Z,0.00
2022-09-07T01:51:07.693Z,0.00
2022-09-07T01:52:07.612Z,0.00
2022-09-07T01:53:07.594Z,0.00
2022-09-07T01:54:07.582Z,0.00
2022-09-07T01:55:07.572Z,0.00
2022-09-07T01:56:07.563Z,0.00
2022-09-07T01:57:07.553Z,0.00
2022-09-07T01:58:07.537Z,0.00
2022-09-07T01:59:07.524Z,0.00
2022-09-07T02:00:07.519Z,0.00
2022-09-07T02:01:07.526Z,0.00
2022-09-07T02:02:07.613Z,0.00
2022-09-07T02:03:07.550Z,0.00
2022-09-07T02:04:07.474Z,0.00
2022-09-07T02:05:07.445Z,0.00
2022-09-07T02:06:07.443Z,0.00
2022-09-07T02:07:07.407Z,0.00
2022-09-07T02:08:07.395Z,0.00
2022-09-07T02:09:07.414Z,0.00
2022-09-07T02:10:07.375Z,0.00
2022-09-07T02:11:07.374Z,0.00
2022-09-07T02:12:07.374Z,0.00
2022-09-07T02:13:07.334Z,0.00
2022-09-07T02:14:07.346Z,0.00
2022-09-07T02:15:07.344Z,0.00
2022-09-07T02:16:07.396Z,0.00
2022-09-07T02:17:07.295Z,0.00
2022-09-07T02:18:07.280Z,0.00
2022-09-07T02:19:07.268Z,0.00
2022-09-07T02:20:07.269Z,0.00
2022-09-07T02:21:07.237Z,0.00
2022-09-07T02:22:07.223Z,0.00
2022-09-07T02:23:07.198Z,0.00
2022-09-07T02:24:07.185Z,0.00
2022-09-07T02:25:07.184Z,0.00
2022-09-07T02:26:07.177Z,0.00
2022-09-07T02:27:07.167Z,0.00
2022-09-07T02:28:07.146Z,0.00
2022-09-07T02:29:07.125Z,0.00
2022-09-07T02:30:07.119Z,0.00
2022-09-07T02:31:07.157Z,0.00
2022-09-07T02:32:07.120Z,0.00
2022-09-07T02:33:07.056Z,0.00
2022-09-07T02:34:07.057Z,0.00
2022-09-07T02:35:07.076Z,0.00
2022-09-07T02:36:07.036Z,0.00
2022-09-07T02:37:07.025Z,0.00
2022-09-07T02:38:07.028Z,0.00
2022-09-07T02:39:06.998Z,0.00
2022-09-07T02:40:07.076Z,0.00
2022-09-07T02:41:06.970Z,0.00
2022-09-07T02:42:06.976Z,0.00
2022-09-07T02:43:06.946Z,0.00
2022-09-07T02:44:06.968Z,0.00
2022-09-07T02:45:06.929Z,0.00
2022-09-07T02:46:06.944Z,0.00
2022-09-07T02:47:06.887Z,0.00
2022-09-07T02:48:06.880Z,0.00
2022-09-07T02:49:06.869Z,0.00
2022-09-07T02:50:06.889Z,0.00
2022-09-07T02:51:06.829Z,0.00
2022-09-07T02:52:06.827Z,0.00
2022-09-07T02:53:06.799Z,0.00
2022-09-07T02:54:06.850Z,0.00
2022-09-07T02:55:06.792Z,0.00
2022-09-07T02:56:06.790Z,0.00
2022-09-07T02:57:06.760Z,0.00
2022-09-07T02:58:06.741Z,0.00
2022-09-07T02:59:06.732Z,0.00
2022-09-07T03:00:06.739Z,0.00
2022-09-07T03:01:06.764Z,0.00
2022-09-07T03:02:06.814Z,0.00
2022-09-07T03:03:06.679Z,0.00
2022-09-07T03:04:06.658Z,0.00
2022-09-07T03:05:06.649Z,0.00
2022-09-07T03:06:06.649Z,0.00
2022-09-07T03:07:06.638Z,0.00
2022-09-07T03:08:06.627Z,0.00
2022-09-07T03:09:06.597Z,0.00
2022-09-07T03:10:06.592Z,0.00
2022-09-07T03:11:06.572Z,0.00
2022-09-07T03:12:06.572Z,0.00
2022-09-07T03:13:06.547Z,0.00
2022-09-07T03:14:06.561Z,0.00
2022-09-07T03:15:06.520Z,0.00
2022-09-07T03:16:06.553Z,0.00
2022-09-07T03:17:06.512Z,0.00
2022-09-07T03:18:06.470Z,0.00
2022-09-07T03:19:06.511Z,0.00
2022-09-07T03:20:06.450Z,0.00
2022-09-07T03:21:06.514Z,0.00
2022-09-07T03:22:06.441Z,0.00
2022-09-07T03:23:06.401Z,0.00
2022-09-07T03:24:06.401Z,0.00
2022-09-07T03:25:06.383Z,0.00
2022-09-07T03:26:06.387Z,0.00
2022-09-07T03:27:06.393Z,0.00
2022-09-07T03:28:06.352Z,0.00
2022-09-07T03:29:06.343Z,0.00
2022-09-07T03:30:06.316Z,0.00
2022-09-07T03:31:06.442Z,0.00
2022-09-07T03:32:06.311Z,0.00
2022-09-07T03:33:06.283Z,0.00
2022-09-07T03:34:06.273Z,0.00
2022-09-07T03:35:06.256Z,0.00
2022-09-07T03:36:06.254Z,0.00
2022-09-07T03:37:06.244Z,0.00
2022-09-07T03:38:06.251Z,0.00
2022-09-07T03:39:06.205Z,0.00
2022-09-07T03:40:06.317Z,0.00
2022-09-07T03:41:06.174Z,0.00
2022-09-07T03:42:06.172Z,0.00
2022-09-07T03:43:06.143Z,0.00
2022-09-07T03:44:06.137Z,0.00
2022-09-07T03:45:06.170Z,0.00
2022-09-07T03:46:06.143Z,0.00
2022-09-07T03:47:06.167Z,0.00
2022-09-07T03:48:06.082Z,0.00
2022-09-07T03:49:06.062Z,0.00
2022-09-07T03:50:06.081Z,0.00
2022-09-07T03:51:06.049Z,0.00
2022-09-07T03:52:06.035Z,0.00
2022-09-07T03:53:06.017Z,0.00
2022-09-07T03:54:06.006Z,4.00
2022-09-07T03:55:05.995Z,4.00
2022-09-07T03:56:05.997Z,0.00
2022-09-07T03:57:05.967Z,4.00
2022-09-07T03:58:05.944Z,4.00
2022-09-07T03:59:05.937Z,4.00
2022-09-07T04:00:05.925Z,4.00
2022-09-07T04:01:05.981Z,4.00
2022-09-07T04:02:05.954Z,4.00
2022-09-07T04:03:05.905Z,4.00
2022-09-07T04:04:05.884Z,4.00
2022-09-07T04:05:05.867Z,8.00
2022-09-07T04:06:05.846Z,8.00
2022-09-07T04:07:05.838Z,12.00
2022-09-07T04:08:05.835Z,12.00
2022-09-07T04:09:05.815Z,16.00
2022-09-07T04:10:05.797Z,20.00
2022-09-07T04:11:05.777Z,20.00
2022-09-07T04:12:05.766Z,24.00
2022-09-07T04:13:05.808Z,28.00
2022-09-07T04:14:05.745Z,32.00
2022-09-07T04:15:05.766Z,40.00
2022-09-07T04:16:05.716Z,44.00
2022-09-07T04:17:05.770Z,52.00
2022-09-07T04:18:05.707Z,60.00
2022-09-07T04:19:05.686Z,68.00
2022-09-07T04:20:05.665Z,80.00
2022-09-07T04:21:05.645Z,88.00
2022-09-07T04:22:05.656Z,100.00
2022-09-07T04:23:05.633Z,116.00
2022-09-07T04:24:05.638Z,132.00
2022-09-07T04:25:05.605Z,148.00
2022-09-07T04:26:05.592Z,164.00
2022-09-07T04:27:05.608Z,184.00
2022-09-07T04:28:05.558Z,200.00
2022-09-07T04:29:05.557Z,220.00
2022-09-07T04:30:05.537Z,236.00
2022-09-07T04:31:05.578Z,252.00
2022-09-07T04:32:05.506Z,276.00
2022-09-07T04:33:05.507Z,296.00
2022-09-07T04:34:05.477Z,316.00
2022-09-07T04:35:05.480Z,336.00
2022-09-07T04:36:05.457Z,360.00
2022-09-07T04:37:05.437Z,384.00
2022-09-07T04:38:05.419Z,408.00
2022-09-07T04:39:05.418Z,432.00
2022-09-07T04:40:05.514Z,460.00
2022-09-07T04:41:05.488Z,484.00
2022-09-07T04:42:05.369Z,512.00
2022-09-07T04:43:05.421Z,544.00
2022-09-07T04:44:05.384Z,568.00
2022-09-07T04:45:05.340Z,596.00
2022-09-07T04:46:05.393Z,624.00
2022-09-07T04:47:05.318Z,652.00
2022-09-07T04:48:05.298Z,684.00
2022-09-07T04:49:05.279Z,712.00
2022-09-07T04:50:05.267Z,740.00
2022-09-07T04:51:05.882Z,772.00
2022-09-07T04:52:05.300Z,800.00
2022-09-07T04:53:05.248Z,828.00
2022-09-07T04:54:05.249Z,860.00
2022-09-07T04:55:05.215Z,888.00
2022-09-07T04:56:05.192Z,924.00
2022-09-07T04:57:05.190Z,956.00
2022-09-07T04:58:05.190Z,992.00
2022-09-07T04:59:05.161Z,1028.00
2022-09-07T05:00:05.168Z,1068.00
2022-09-07T05:01:05.174Z,1100.00
2022-09-07T05:02:05.162Z,1124.00
2022-09-07T05:03:05.118Z,1144.00
2022-09-07T05:04:05.090Z,1172.00
2022-09-07T05:05:05.070Z,1204.00
2022-09-07T05:06:05.069Z,1224.00
2022-09-07T05:07:05.040Z,1252.00
2022-09-07T05:08:05.067Z,1292.00
2022-09-07T05:09:05.010Z,1336.00
2022-09-07T05:10:05.014Z,1372.00
2022-09-07T05:11:05.037Z,1428.00
2022-09-07T05:12:04.995Z,1476.00
2022-09-07T05:13:04.990Z,1520.00
2022-09-07T05:14:04.954Z,1572.00
2022-09-07T05:15:04.960Z,1628.00
2022-09-07T05:16:04.986Z,1676.00
2022-09-07T05:17:04.939Z,1712.00
2022-09-07T05:18:04.902Z,1744.00
2022-09-07T05:19:04.892Z,1768.00
2022-09-07T05:20:04.879Z,1792.00
2022-09-07T05:21:04.862Z,1824.00
2022-09-07T05:22:04.861Z,1880.00
2022-09-07T05:23:04.830Z,1944.00
2022-09-07T05:24:04.834Z,1996.00
2022-09-07T05:25:04.805Z,2024.00
2022-09-07T05:26:04.832Z,2052.00
2022-09-07T05:27:04.804Z,2100.00
2022-09-07T05:28:04.844Z,2120.00
2022-09-07T05:30:06.325Z,2200.00
2022-09-07T05:31:20.538Z,2232.00
2022-09-07T05:32:05.755Z,2272.00
2022-09-07T05:33:04.734Z,2292.00
2022-09-07T05:35:05.687Z,2348.00
2022-09-07T05:36:04.681Z,2372.00
2022-09-07T05:37:04.643Z,2388.00
2022-09-07T05:38:04.653Z,2408.00
2022-09-07T05:39:04.660Z,2432.00
2022-09-07T05:40:04.697Z,2440.00
2022-09-07T05:41:04.605Z,2452.00
2022-09-07T05:42:04.574Z,2468.00
2022-09-07T05:43:04.577Z,2488.00
2022-09-07T05:45:05.561Z,2564.00
2022-09-07T05:46:04.608Z,2616.00
2022-09-07T05:47:04.522Z,2660.00
2022-09-07T05:48:04.505Z,2696.00
2022-09-07T05:49:04.495Z,2712.00
2022-09-07T05:50:04.478Z,2732.00
2022-09-07T05:51:04.493Z,2752.00
2022-09-07T05:52:04.447Z,2764.00
2022-09-07T05:53:04.447Z,2780.00
2022-09-07T05:54:04.452Z,2792.00
2022-09-07T05:55:26.238Z,2804.00
2022-09-07T05:56:07.182Z,2780.00
2022-09-07T05:57:04.394Z,2740.00
2022-09-07T05:58:04.393Z,2760.00
2022-09-07T05:59:04.362Z,2740.00
2022-09-07T06:00:04.374Z,2740.00
2022-09-07T06:01:04.374Z,2764.00
2022-09-07T06:02:04.463Z,2816.00
2022-09-07T06:03:04.394Z,2844.00
2022-09-07T06:04:04.295Z,2884.00
2022-09-07T06:05:04.305Z,2932.00
2022-09-07T06:06:04.282Z,2988.00
2022-09-07T06:07:21.029Z,3056.00
2022-09-07T06:08:05.260Z,3144.00
2022-09-07T06:09:04.220Z,3200.00
2022-09-07T06:11:05.221Z,3256.00
2022-09-07T06:12:04.190Z,3292.00
2022-09-07T06:13:04.228Z,3316.00
2022-09-07T06:14:04.162Z,3344.00
2022-09-07T06:15:04.155Z,3360.00
2022-09-07T06:16:04.178Z,3380.00
2022-09-07T06:17:04.126Z,3396.00
2022-09-07T06:18:04.132Z,3424.00
2022-09-07T06:19:04.098Z,3440.00
2022-09-07T06:20:04.101Z,3464.00
2022-09-07T06:21:04.090Z,3476.00
2022-09-07T06:22:11.144Z,3504.00
2022-09-07T06:23:04.047Z,3528.00
2022-09-07T06:24:04.037Z,3548.00
2022-09-07T06:25:04.028Z,3572.00
2022-09-07T06:26:04.026Z,3592.00
2022-09-07T06:27:03.996Z,3608.00
2022-09-07T06:28:03.973Z,3608.00
2022-09-07T06:29:03.956Z,3560.00
2022-09-07T06:30:03.944Z,3436.00
2022-09-07T06:31:03.933Z,3620.00
2022-09-07T06:33:04.914Z,3828.00
2022-09-07T06:34:03.985Z,3892.00
2022-09-07T06:35:03.891Z,3928.00
2022-09-07T06:36:03.898Z,3976.00
2022-09-07T06:37:03.867Z,4004.00
2022-09-07T06:38:03.866Z,4024.00
2022-09-07T06:39:03.840Z,4044.00
2022-09-07T06:40:03.909Z,4064.00
2022-09-07T06:42:04.826Z,4120.00
2022-09-07T06:43:03.776Z,4136.00
2022-09-07T06:44:03.856Z,4156.00
2022-09-07T06:45:03.782Z,4172.00
2022-09-07T06:47:05.059Z,4228.00
2022-09-07T06:48:03.728Z,4260.00
2022-09-07T06:49:03.748Z,4292.00
2022-09-07T06:50:03.769Z,4316.00
2022-09-07T06:51:03.693Z,4344.00
2022-09-07T06:52:03.658Z,4380.00
2022-09-07T06:55:04.618Z,4388.00
2022-09-07T06:56:03.598Z,4368.00
2022-09-07T06:57:03.588Z,4368.00
2022-09-07T06:58:03.580Z,4372.00
2022-09-07T06:59:03.569Z,4352.00
2022-09-07T07:00:03.579Z,4368.00
2022-09-07T07:01:03.601Z,4376.00
2022-09-07T07:02:03.545Z,4348.00
2022-09-07T07:03:03.586Z,4188.00
2022-09-07T07:04:03.508Z,4364.00
2022-09-07T07:05:03.521Z,4308.00
2022-09-07T07:06:03.480Z,4196.00
2022-09-07T07:07:03.480Z,4072.00
2022-09-07T07:08:03.448Z,4244.00
2022-09-07T07:09:03.432Z,4224.00
2022-09-07T07:10:03.429Z,4328.00
2022-09-07T07:11:03.432Z,4376.00
2022-09-07T07:12:03.399Z,4428.00
2022-09-07T07:13:03.422Z,4360.00
2022-09-07T07:14:03.370Z,4376.00
2022-09-07T07:15:03.362Z,4592.00
2022-09-07T07:16:03.451Z,4480.00
2022-09-07T07:17:03.355Z,4516.00
2022-09-07T07:18:19.917Z,4676.00
2022-09-07T07:19:04.312Z,4688.00
2022-09-07T07:20:03.305Z,4720.00
2022-09-07T07:21:03.304Z,4760.00
2022-09-07T07:23:04.253Z,4808.00
2022-09-07T07:24:07.963Z,4740.00
2022-09-07T07:25:04.236Z,4656.00
2022-09-07T07:26:03.216Z,4660.00
2022-09-07T07:27:03.211Z,4708.00
2022-09-07T07:29:04.465Z,4668.00
2022-09-07T07:30:03.214Z,4620.00
2022-09-07T07:31:07.169Z,4500.00
2022-09-07T07:32:04.151Z,4400.00
2022-09-07T07:33:03.177Z,4388.00
2022-09-07T07:34:03.165Z,4344.00
2022-09-07T07:35:03.131Z,4296.00
2022-09-07T07:36:03.085Z,4232.00
2022-09-07T07:37:03.074Z,4172.00
2022-09-07T07:39:04.521Z,4128.00
2022-09-07T07:40:21.268Z,4168.00
2022-09-07T07:42:05.960Z,4372.00
2022-09-07T07:43:02.996Z,4500.00
2022-09-07T07:44:02.996Z,4540.00
2022-09-07T07:46:06.100Z,4712.00
2022-09-07T07:47:02.988Z,4744.00
2022-09-07T07:48:02.959Z,4836.00
2022-09-07T07:49:02.960Z,4880.00
2022-09-07T07:51:09.900Z,4884.00
2022-09-07T07:54:03.846Z,4920.00
2022-09-07T07:55:42.789Z,5012.00
2022-09-07T07:56:03.827Z,5172.00
2022-09-07T07:57:02.818Z,5224.00
2022-09-07T07:58:02.804Z,5120.00
2022-09-07T07:59:02.800Z,5224.00
2022-09-07T08:00:02.798Z,5284.00
2022-09-07T08:01:02.945Z,5332.00
2022-09-07T08:02:02.859Z,5280.00
2022-09-07T08:03:02.739Z,5344.00
2022-09-07T08:04:02.708Z,5336.00
2022-09-07T08:05:02.717Z,5368.00
2022-09-07T08:06:02.687Z,5368.00
2022-09-07T08:07:08.308Z,5320.00
2022-09-07T08:08:03.661Z,5292.00
2022-09-07T08:09:02.658Z,5260.00
2022-09-07T08:10:02.639Z,5228.00
2022-09-07T08:11:02.619Z,5356.00
2022-09-07T08:12:02.621Z,5500.00
2022-09-07T08:13:02.610Z,5484.00
2022-09-07T08:14:02.600Z,5428.00
2022-09-07T08:15:02.604Z,5472.00
2022-09-07T08:16:02.631Z,5456.00
2022-09-07T08:17:02.618Z,5496.00
2022-09-07T08:18:02.531Z,5476.00
2022-09-07T08:19:02.591Z,5460.00
2022-09-07T08:20:02.518Z,5376.00
2022-09-07T08:21:02.533Z,5160.00
2022-09-07T08:22:02.485Z,5020.00
2022-09-07T08:23:02.482Z,4628.00
2022-09-07T08:24:02.459Z,4488.00
2022-09-07T08:25:02.459Z,4524.00
2022-09-07T08:26:02.431Z,4608.00
2022-09-07T08:27:02.432Z,4724.00
2022-09-07T08:28:02.412Z,4764.00
2022-09-07T08:29:02.394Z,5040.00
2022-09-07T08:30:02.414Z,5140.00
2022-09-07T08:31:02.372Z,5072.00
2022-09-07T08:32:02.434Z,5032.00
2022-09-07T08:33:02.345Z,5040.00
2022-09-07T08:34:02.346Z,5020.00
2022-09-07T08:35:02.315Z,5012.00
2022-09-07T08:36:02.342Z,5000.00
2022-09-07T08:37:02.292Z,4984.00
2022-09-07T08:38:02.272Z,4984.00
2022-09-07T08:39:02.263Z,4992.00
2022-09-07T08:40:02.298Z,5028.00
2022-09-07T08:41:02.278Z,5060.00
2022-09-07T08:42:02.233Z,5100.00
2022-09-07T08:43:02.282Z,5124.00
2022-09-07T08:44:02.204Z,5184.00
2022-09-07T08:45:02.205Z,5148.00
2022-09-07T08:46:02.174Z,5164.00
2022-09-07T08:47:02.232Z,5224.00
2022-09-07T08:48:02.175Z,5260.00
2022-09-07T08:49:02.137Z,5232.00
2022-09-07T08:50:02.149Z,5284.00
2022-09-07T08:51:02.145Z,5332.00
2022-09-07T08:52:02.094Z,5336.00
2022-09-07T08:53:02.107Z,5360.00
2022-09-07T08:54:02.076Z,5328.00
2022-09-07T08:55:02.055Z,5332.00
2022-09-07T08:56:02.045Z,5372.00
2022-09-07T08:58:03.028Z,5452.00
2022-09-07T08:59:02.004Z,5500.00
2022-09-07T09:00:02.021Z,5552.00
2022-09-07T09:04:19.346Z,5628.00
2022-09-07T09:05:18.986Z,5732.00
2022-09-07T09:06:02.973Z,5784.00
2022-09-07T09:07:02.067Z,5832.00
2022-09-07T09:08:01.878Z,5896.00
2022-09-07T09:09:01.867Z,5988.00
2022-09-07T09:10:01.879Z,6080.00
2022-09-07T09:11:01.879Z,6208.00
2022-09-07T09:12:01.834Z,6336.00
2022-09-07T09:13:01.889Z,6416.00
2022-09-07T09:14:01.799Z,6464.00
2022-09-07T09:15:01.788Z,6488.00
2022-09-07T09:16:01.823Z,6532.00
2022-09-07T09:17:01.797Z,6552.00
2022-09-07T09:18:01.763Z,6752.00
2022-09-07T09:19:01.762Z,6764.00
2022-09-07T09:20:01.745Z,6820.00
2022-09-07T09:21:01.712Z,6672.00
2022-09-07T09:22:01.702Z,6848.00
2022-09-07T09:23:01.702Z,6860.00
2022-09-07T09:24:01.699Z,6580.00
2022-09-07T09:25:01.659Z,6952.00
2022-09-07T09:26:01.651Z,6848.00
2022-09-07T09:27:01.656Z,6776.00
2022-09-07T09:28:01.632Z,6632.00
2022-09-07T09:29:01.618Z,6628.00
2022-09-07T09:30:01.664Z,6548.00
2022-09-07T09:31:01.651Z,6464.00
2022-09-07T09:32:01.593Z,6400.00
2022-09-07T09:33:01.556Z,6248.00
2022-09-07T09:34:01.551Z,6112.00
2022-09-07T09:35:01.544Z,6064.00
2022-09-07T09:36:01.574Z,6024.00
2022-09-07T09:37:01.505Z,5896.00
2022-09-07T09:38:01.497Z,5768.00
2022-09-07T09:39:01.474Z,5708.00
2022-09-07T09:40:02.930Z,5620.00
2022-09-07T09:41:01.503Z,5596.00
2022-09-07T09:42:01.433Z,5484.00
2022-09-07T09:43:01.423Z,5484.00
2022-09-07T09:44:01.444Z,5416.00
2022-09-07T09:45:01.394Z,5464.00
2022-09-07T09:46:16.665Z,5508.00
2022-09-07T09:48:02.447Z,5436.00
2022-09-07T09:49:01.387Z,5444.00
2022-09-07T09:50:01.358Z,5492.00
2022-09-07T09:53:02.305Z,5660.00
2022-09-07T09:54:01.276Z,5672.00
2022-09-07T09:56:02.258Z,5680.00
2022-09-07T09:57:01.248Z,5680.00
2022-09-07T09:59:05.723Z,5600.00
2022-09-07T10:00:06.927Z,5560.00
2022-09-07T10:04:05.619Z,5908.00
2022-09-07T10:05:02.139Z,5912.00
2022-09-07T10:06:01.128Z,5928.00
2022-09-07T10:07:01.147Z,5892.00
2022-09-07T10:08:01.088Z,5864.00
2022-09-07T10:09:01.079Z,6140.00
2022-09-07T10:10:01.078Z,6176.00
2022-09-07T10:11:01.108Z,6164.00
2022-09-07T10:12:08.754Z,6008.00
2022-09-07T10:13:02.033Z,6120.00
2022-09-07T10:14:01.031Z,6468.00
2022-09-07T10:15:01.001Z,6704.00
2022-09-07T10:16:01.064Z,6776.00
2022-09-07T10:17:02.010Z,6868.00
2022-09-07T10:18:00.972Z,6896.00
2022-09-07T10:19:00.965Z,6976.00
2022-09-07T10:20:01.009Z,7052.00
2022-09-07T10:21:00.932Z,7092.00
2022-09-07T10:22:00.915Z,7032.00
2022-09-07T10:23:00.901Z,7204.00
2022-09-07T10:24:00.891Z,7284.00
2022-09-07T10:25:00.912Z,7436.00
2022-09-07T10:26:00.912Z,7556.00
2022-09-07T10:27:00.842Z,7600.00
2022-09-07T10:28:00.843Z,7676.00
2022-09-07T10:29:08.418Z,7664.00
2022-09-07T10:30:01.824Z,7748.00
2022-09-07T10:31:00.851Z,7772.00
2022-09-07T10:32:00.785Z,7812.00
2022-09-07T10:33:00.773Z,8040.00
2022-09-07T10:35:01.746Z,8160.00
2022-09-07T10:36:00.769Z,8220.00
2022-09-07T10:37:00.725Z,8312.00
2022-09-07T10:38:00.724Z,8360.00
2022-09-07T10:39:00.685Z,8408.00
2022-09-07T10:40:00.921Z,8404.00
2022-09-07T10:41:00.694Z,8180.00
2022-09-07T10:42:00.693Z,8368.00
2022-09-07T10:44:01.637Z,8432.00
2022-09-07T10:45:00.637Z,8472.00
2022-09-07T10:46:00.646Z,8476.00
2022-09-07T10:47:00.645Z,8448.00
2022-09-07T10:48:00.597Z,8472.00
2022-09-07T10:49:00.560Z,8516.00
2022-09-07T10:51:09.993Z,8424.00
2022-09-07T10:52:01.517Z,7612.00
2022-09-07T10:53:00.537Z,7464.00
2022-09-07T10:55:01.488Z,6992.00
2022-09-07T10:56:00.542Z,6896.00
2022-09-07T10:57:00.461Z,6876.00
2022-09-07T10:58:00.451Z,6964.00
2022-09-07T10:59:02.277Z,7064.00
2022-09-07T11:00:08.255Z,7160.00
2022-09-07T11:01:02.244Z,7248.00
2022-09-07T11:02:00.407Z,7340.00
2022-09-07T11:04:01.449Z,7532.00
2022-09-07T11:05:00.362Z,7632.00
2022-09-07T11:06:00.347Z,7724.00
2022-09-07T11:07:00.331Z,7832.00
2022-09-07T11:08:00.342Z,7952.00
2022-09-07T11:09:16.921Z,8092.00
2022-09-07T11:10:01.316Z,8256.00
2022-09-07T11:11:00.317Z,8404.00
2022-09-07T11:12:02.049Z,8528.00
2022-09-07T11:13:00.290Z,8640.00
2022-09-07T11:14:12.612Z,8720.00
2022-09-07T11:15:01.242Z,8768.00
2022-09-07T11:16:00.432Z,8840.00
2022-09-07T11:17:00.707Z,8904.00
2022-09-07T11:18:00.241Z,8944.00
2022-09-07T11:20:01.204Z,8968.00
2022-09-07T11:21:00.172Z,8972.00
2022-09-07T11:22:00.143Z,8956.00
2022-09-07T11:23:00.134Z,8908.00
2022-09-07T11:24:00.156Z,8820.00
2022-09-07T11:26:01.087Z,8608.00
2022-09-07T11:27:00.083Z,8504.00
2022-09-07T11:28:00.129Z,8432.00
2022-09-07T11:29:30.032Z,8396.00
2022-09-07T11:30:01.058Z,8412.00
2022-09-07T11:31:00.655Z,8476.00
2022-09-07T11:32:00.004Z,8584.00
2022-09-07T11:32:59.998Z,8736.00
2022-09-07T11:35:00.965Z,9072.00
2022-09-07T11:35:59.977Z,9236.00
2022-09-07T11:36:59.958Z,9396.00
2022-09-07T11:37:59.927Z,9496.00
2022-09-07T11:38:59.968Z,9588.00
2022-09-07T11:39:59.974Z,9656.00
2022-09-07T11:40:59.900Z,9708.00
2022-09-07T11:42:00.738Z,9736.00
2022-09-07T11:42:59.872Z,9756.00
2022-09-07T11:43:59.879Z,9772.00
2022-09-07T11:44:59.861Z,9900.00
2022-09-07T11:45:59.884Z,9780.00
2022-09-07T11:46:59.821Z,9760.00
2022-09-07T11:47:59.799Z,9812.00
2022-09-07T11:48:59.781Z,9792.00
2022-09-07T11:49:59.791Z,10424.00
2022-09-07T11:50:59.800Z,9932.00
2022-09-07T11:52:05.062Z,9948.00
2022-09-07T11:53:00.749Z,9908.00
2022-09-07T11:53:59.721Z,10364.00
2022-09-07T11:54:59.771Z,10688.00
2022-09-07T11:55:59.711Z,10264.00
2022-09-07T11:56:59.692Z,10796.00
2022-09-07T11:57:59.681Z,10340.00
2022-09-07T11:58:59.664Z,10236.00
2022-09-07T11:59:59.663Z,10404.00
2022-09-07T12:00:59.643Z,11184.00
2022-09-07T12:01:59.621Z,9620.00
2022-09-07T12:03:00.802Z,9372.00
2022-09-07T12:03:59.746Z,9588.00
2022-09-07T12:04:59.707Z,8772.00
2022-09-07T12:05:59.604Z,8464.00
2022-09-07T12:06:59.564Z,8236.00
2022-09-07T12:07:59.550Z,8192.00
2022-09-07T12:08:59.550Z,8164.00
2022-09-07T12:09:59.532Z,8144.00
2022-09-07T12:10:59.509Z,8736.00
2022-09-07T12:11:59.496Z,8732.00
2022-09-07T12:12:59.526Z,7828.00
2022-09-07T12:13:59.476Z,6800.00
2022-09-07T12:14:59.478Z,5932.00
2022-09-07T12:15:59.564Z,5784.00
2022-09-07T12:16:59.436Z,5840.00
2022-09-07T12:17:59.416Z,6032.00
2022-09-07T12:18:59.405Z,6284.00
2022-09-07T12:19:59.398Z,6452.00
2022-09-07T12:20:59.407Z,6428.00
2022-09-07T12:22:06.408Z,6380.00
2022-09-07T12:23:04.238Z,6328.00
2022-09-07T12:24:00.345Z,6332.00
2022-09-07T12:24:59.327Z,6468.00
2022-09-07T12:25:59.326Z,6648.00
2022-09-07T12:26:59.442Z,6872.00
2022-09-07T12:27:59.396Z,7180.00
2022-09-07T12:28:59.283Z,7480.00
2022-09-07T12:29:59.327Z,7724.00
2022-09-07T12:30:59.313Z,8024.00
2022-09-07T12:32:07.647Z,8328.00
2022-09-07T12:33:00.322Z,8584.00
2022-09-07T12:33:59.226Z,8868.00
2022-09-07T12:34:59.198Z,9128.00
2022-09-07T12:35:59.188Z,9532.00
2022-09-07T12:36:59.199Z,10040.00
2022-09-07T12:37:59.171Z,10036.00
2022-09-07T12:38:59.189Z,10472.00
2022-09-07T12:39:59.200Z,11544.00
2022-09-07T12:40:59.161Z,10952.00
2022-09-07T12:43:09.557Z,11232.00
2022-09-07T12:44:02.019Z,11240.00
2022-09-07T12:44:59.069Z,11064.00
2022-09-07T12:45:59.077Z,10796.00
2022-09-07T12:46:59.041Z,10416.00
2022-09-07T12:47:59.077Z,10092.00
2022-09-07T12:48:59.029Z,9960.00
2022-09-07T12:49:59.024Z,9904.00
2022-09-07T12:50:59.032Z,9756.00
2022-09-07T12:52:04.922Z,9392.00
2022-09-07T12:52:59.972Z,9020.00
2022-09-07T12:53:58.964Z,8620.00
2022-09-07T12:55:23.669Z,8276.00
2022-09-07T12:56:16.012Z,7996.00
2022-09-07T12:57:59.919Z,7724.00
2022-09-07T12:58:58.881Z,7684.00
2022-09-07T12:59:58.884Z,7664.00
2022-09-07T13:00:58.902Z,7724.00
2022-09-07T13:01:58.945Z,7616.00
2022-09-07T13:02:58.844Z,8512.00
2022-09-07T13:03:58.835Z,7776.00
2022-09-07T13:04:58.824Z,7620.00
2022-09-07T13:05:58.804Z,7520.00
2022-09-07T13:07:02.301Z,7568.00
2022-09-07T13:08:07.196Z,7636.00